Time;durP1;ratioP1;P1;durP2;ratioP2;P2;SDS_P1;SDS_P2;PMS_P1;PMS_P2;Temp;Humidity;BMP_temperature;BMP_pressure;BME280_temperature;BME280_humidity;BME280_pressure;Samples;Min_cycle;Max_cycle;Signal;HPM_P1;HPM_P2
2022/09/18 00:01:57;;;;;;;0.20;0.20;;;;;;;12.62;73.67;101012.84;5147613;28;20132;-82
2022/09/18 00:04:29;;;;;;;0.22;0.22;;;;;;;12.47;74.33;101014.16;5130018;28;20033;-83
2022/09/18 00:07:00;;;;;;;0.80;0.80;;;;;;;12.56;73.36;101016.50;5145472;28;20045;-83
2022/09/18 00:09:31;;;;;;;0.45;0.45;;;;;;;12.46;74.75;101009.78;5123544;28;20494;-82
2022/09/18 00:12:03;;;;;;;0.30;0.30;;;;;;;12.31;75.71;101011.16;5152217;28;20045;-83
2022/09/18 00:14:33;;;;;;;0.40;0.40;;;;;;;12.41;74.25;101012.56;5112964;28;20038;-83
2022/09/18 00:17:12;;;;;;;0.98;0.85;;;;;;;12.34;75.01;101002.28;5134591;28;20149;-83
2022/09/18 00:19:43;;;;;;;0.30;0.30;;;;;;;12.42;74.63;101008.19;5129290;28;20578;-83
2022/09/18 00:22:13;;;;;;;0.30;0.30;;;;;;;12.42;74.82;101002.91;5099808;28;20129;-83
2022/09/18 00:24:48;;;;;;;0.43;0.35;;;;;;;12.36;75.13;100995.19;5145864;28;20038;-83
2022/09/18 00:27:19;;;;;;;1.45;0.73;;;;;;;12.47;74.05;101002.78;5132418;28;20061;-83
2022/09/18 00:29:49;;;;;;;0.57;0.57;;;;;;;12.39;74.69;100997.75;5125012;28;20088;-83
2022/09/18 00:32:24;;;;;;;0.90;0.88;;;;;;;12.15;76.29;100994.09;5148789;28;20031;-82
2022/09/18 00:34:54;;;;;;;0.63;0.63;;;;;;;12.22;75.09;100993.84;5121322;28;20073;-82
2022/09/18 00:37:26;;;;;;;0.20;0.20;;;;;;;12.31;76.07;100999.75;5144168;28;20050;-82
2022/09/18 00:39:57;;;;;;;0.20;0.20;;;;;;;12.40;74.13;100994.19;5175970;28;20082;-83
2022/09/18 00:42:28;;;;;;;0.57;0.57;;;;;;;12.42;74.00;101000.28;5109840;28;20023;-83
2022/09/18 00:45:02;;;;;;;4.32;1.35;;;;;;;12.43;74.08;101002.88;5164701;28;20026;-83
2022/09/18 00:48:00;;;;;;;0.73;0.73;;;;;;;12.26;75.20;100998.13;5168564;28;20098;-82
2022/09/18 00:50:30;;;;;;;0.35;0.35;;;;;;;12.34;74.72;101005.78;5155272;28;20033;-83
2022/09/18 00:53:06;;;;;;;0.30;0.30;;;;;;;12.20;75.34;101006.16;5170304;28;20034;-84
2022/09/18 00:55:37;;;;;;;0.30;0.30;;;;;;;12.25;74.73;100999.03;5117024;28;20027;-82
2022/09/18 00:58:09;;;;;;;1.35;1.30;;;;;;;12.17;75.84;101001.03;5112966;28;20038;-83
2022/09/18 01:00:45;;;;;;;0.30;0.30;;;;;;;12.25;75.11;101001.66;5105484;28;20514;-83
2022/09/18 01:03:19;;;;;;;0.20;0.20;;;;;;;12.21;75.45;100993.91;5111983;28;20045;-81
2022/09/18 01:06:11;;;;;;;0.20;0.20;;;;;;;12.26;74.76;101003.38;5166685;28;20533;-83
2022/09/18 01:08:59;;;;;;;0.30;0.30;;;;;;;12.18;75.60;101000.13;5109099;28;20659;-83
2022/09/18 01:11:40;;;;;;;1.08;0.98;;;;;;;12.26;74.33;101006.00;5127131;28;20030;-83
2022/09/18 01:14:56;;;;;;;0.25;0.25;;;;;;;12.16;75.54;101003.69;5107708;28;20046;-83
2022/09/18 01:17:38;;;;;;;0.50;0.50;;;;;;;12.17;75.33;101006.28;5109908;28;20375;-83
2022/09/18 01:20:24;;;;;;;0.68;0.68;;;;;;;12.03;76.57;101003.16;5123824;28;20034;-84
2022/09/18 01:23:22;;;;;;;0.30;0.30;;;;;;;12.19;75.12;101007.06;5142029;28;20089;-83
2022/09/18 01:26:30;;;;;;;0.20;0.20;;;;;;;12.05;75.92;101006.63;5124398;28;20089;-83
2022/09/18 01:29:25;;;;;;;0.40;0.40;;;;;;;12.13;75.30;101012.53;5150588;28;20659;-84
2022/09/18 01:32:09;;;;;;;0.50;0.50;;;;;;;12.19;74.80;101004.44;5106957;28;20038;-83
2022/09/18 01:34:45;;;;;;;0.17;0.17;;;;;;;12.33;74.12;101006.69;5127849;28;20096;-83
2022/09/18 01:37:40;;;;;;;0.40;0.40;;;;;;;12.21;74.96;101009.69;5110572;28;20071;-83
2022/09/18 01:40:21;;;;;;;0.20;0.20;;;;;;;12.21;74.89;101010.53;5121803;28;20598;-82
2022/09/18 01:42:56;;;;;;;0.20;0.20;;;;;;;12.18;74.84;101007.13;5125867;28;20046;-83
2022/09/18 01:45:32;;;;;;;0.20;0.20;;;;;;;12.24;75.07;101005.19;5123977;28;20030;-82
2022/09/18 01:48:06;;;;;;;0.35;0.35;;;;;;;12.21;75.38;101005.28;5128525;28;20149;-83
2022/09/18 01:50:54;;;;;;;0.20;0.20;;;;;;;12.07;76.50;101002.19;5141475;28;20423;-83
2022/09/18 01:53:31;;;;;;;0.20;0.20;;;;;;;12.05;76.23;100998.72;5127237;28;20038;-82
2022/09/18 01:56:10;;;;;;;0.20;0.20;;;;;;;12.20;76.03;100994.81;5126422;28;20057;-83
2022/09/18 01:58:42;;;;;;;0.20;0.20;;;;;;;12.14;76.53;100993.22;5117922;28;20457;-83
2022/09/18 02:01:18;;;;;;;1.05;0.55;;;;;;;12.03;77.14;100988.25;5110974;28;20126;-83
2022/09/18 02:03:54;;;;;;;0.60;0.60;;;;;;;12.20;76.46;101000.91;5145456;28;20101;-83
2022/09/18 02:06:33;;;;;;;0.20;0.20;;;;;;;12.25;75.72;100991.13;5132851;28;20042;-82
2022/09/18 02:09:07;;;;;;;0.65;0.65;;;;;;;12.23;75.29;101000.84;5122785;28;20627;-83
2022/09/18 02:11:45;;;;;;;0.30;0.30;;;;;;;12.32;75.38;100999.69;5113242;28;20056;-82
2022/09/18 02:14:26;;;;;;;3.53;0.60;;;;;;;12.15;76.58;100996.72;5122420;28;20037;-82
2022/09/18 02:17:04;;;;;;;0.30;0.30;;;;;;;12.06;77.44;100997.81;5085375;28;20035;-83
2022/09/18 02:19:48;;;;;;;1.17;1.08;;;;;;;12.21;76.76;101001.78;5153349;28;20096;-83
2022/09/18 02:22:23;;;;;;;0.30;0.30;;;;;;;12.22;76.76;100998.25;5114967;28;20059;-83
2022/09/18 02:24:58;;;;;;;0.30;0.30;;;;;;;12.24;76.12;101002.56;5137304;28;20113;-82
2022/09/18 02:27:32;;;;;;;2.78;1.30;;;;;;;12.11;77.62;101002.06;5111284;28;20045;-83
2022/09/18 02:30:16;;;;;;;0.20;0.20;;;;;;;12.24;76.93;100992.03;5151742;28;20041;-83
2022/09/18 02:32:47;;;;;;;0.60;0.60;;;;;;;12.18;77.82;100997.50;5169937;28;20110;-83
2022/09/18 02:35:20;;;;;;;0.32;0.32;;;;;;;12.18;77.01;101000.13;5134312;28;20045;-82
2022/09/18 02:38:07;;;;;;;0.40;0.40;;;;;;;12.25;76.86;100996.41;5140025;28;20046;-82
2022/09/18 02:40:54;;;;;;;0.30;0.30;;;;;;;12.18;76.85;101000.13;5127109;28;20629;-82
2022/09/18 02:44:04;;;;;;;0.30;0.30;;;;;;;12.34;76.21;100997.88;5135247;28;20046;-83
2022/09/18 02:46:50;;;;;;;0.20;0.20;;;;;;;12.31;77.45;100989.22;5132524;28;20651;-83
2022/09/18 02:49:29;;;;;;;0.57;0.45;;;;;;;12.24;76.95;100991.16;5134004;28;20038;-82
2022/09/18 02:52:25;;;;;;;0.30;0.30;;;;;;;12.17;78.08;100994.88;5123808;28;20057;-82
2022/09/18 02:55:01;;;;;;;0.50;0.50;;;;;;;11.94;79.54;100984.09;5142997;28;20061;-83
2022/09/18 02:57:37;;;;;;;0.30;0.30;;;;;;;12.14;77.48;100987.94;5117095;28;20157;-82
2022/09/18 03:00:14;;;;;;;0.28;0.28;;;;;;;12.16;77.24;100982.63;5131092;28;20323;-83
2022/09/18 03:02:58;;;;;;;0.30;0.30;;;;;;;12.19;77.65;100982.56;5161701;28;20121;-83
2022/09/18 03:05:30;;;;;;;0.40;0.40;;;;;;;12.30;76.94;100976.97;5142200;28;20031;-83
2022/09/18 03:08:01;;;;;;;1.17;1.15;;;;;;;12.24;77.02;100980.63;5115739;28;20047;-82
2022/09/18 03:10:32;;;;;;;0.30;0.30;;;;;;;12.11;78.38;100974.88;5128410;28;20085;-82
2022/09/18 03:13:02;;;;;;;0.22;0.22;;;;;;;11.98;79.76;100981.41;5118447;28;20124;-83
2022/09/18 03:15:33;;;;;;;0.20;0.20;;;;;;;11.94;79.03;100973.56;5112601;28;20030;-83
2022/09/18 03:18:03;;;;;;;0.30;0.30;;;;;;;12.05;77.76;100975.06;5149352;28;20410;-82
2022/09/18 03:20:34;;;;;;;0.20;0.20;;;;;;;12.09;77.21;100968.81;5146763;28;20089;-83
2022/09/18 03:23:05;;;;;;;0.30;0.30;;;;;;;12.18;77.84;100971.19;5143764;28;20112;-83
2022/09/18 03:25:36;;;;;;;0.60;0.60;;;;;;;12.18;77.23;100970.31;5124538;28;20120;-83
2022/09/18 03:28:06;;;;;;;0.40;0.40;;;;;;;12.09;78.21;100967.03;5108250;28;20106;-83
2022/09/18 03:30:37;;;;;;;0.77;0.57;;;;;;;12.17;77.39;100974.72;5116642;28;20026;-80
2022/09/18 03:33:07;;;;;;;0.30;0.30;;;;;;;12.15;77.88;100973.88;5121190;28;20152;-81
2022/09/18 03:35:38;;;;;;;0.20;0.20;;;;;;;12.06;78.52;100967.16;5112215;28;20790;-81
2022/09/18 03:38:09;;;;;;;1.80;1.67;;;;;;;11.99;78.46;100973.47;5142320;28;20043;-81
2022/09/18 03:40:44;;;;;;;0.52;0.52;;;;;;;12.00;78.69;100969.94;5109486;28;20945;-80
2022/09/18 03:43:14;;;;;;;0.38;0.38;;;;;;;12.05;77.98;100982.94;5136069;28;20046;-81
2022/09/18 03:45:48;;;;;;;0.43;0.43;;;;;;;12.03;78.56;100982.13;5169082;28;20098;-81
2022/09/18 03:48:19;;;;;;;0.35;0.35;;;;;;;12.10;77.83;100988.97;5137612;28;20450;-81
2022/09/18 03:50:49;;;;;;;0.28;0.28;;;;;;;11.89;78.98;100986.00;5120131;28;20018;-83
2022/09/18 03:53:20;;;;;;;0.20;0.20;;;;;;;11.93;77.88;100990.28;5108284;28;20550;-83
2022/09/18 03:55:51;;;;;;;0.30;0.30;;;;;;;11.95;78.59;100991.06;5138957;28;20180;-83
2022/09/18 03:58:22;;;;;;;0.20;0.20;;;;;;;12.04;77.10;100981.22;5139956;28;20105;-83
2022/09/18 04:00:53;;;;;;;0.47;0.47;;;;;;;12.09;78.21;100984.59;5156665;28;20053;-83
2022/09/18 04:03:23;;;;;;;0.50;0.50;;;;;;;12.15;78.36;100979.16;5106916;28;20452;-83
2022/09/18 04:05:54;;;;;;;0.30;0.30;;;;;;;12.18;77.90;100978.19;5122889;28;20086;-83
2022/09/18 04:08:25;;;;;;;0.30;0.30;;;;;;;12.03;79.68;100974.25;5141523;28;20038;-83
2022/09/18 04:10:55;;;;;;;0.50;0.50;;;;;;;12.12;78.24;100971.34;5130308;28;20033;-83
2022/09/18 04:13:26;;;;;;;0.30;0.30;;;;;;;12.04;79.79;100970.69;5143150;28;20042;-83
2022/09/18 04:15:57;;;;;;;0.28;0.28;;;;;;;11.95;80.45;100963.94;5108216;28;20124;-83
2022/09/18 04:18:27;;;;;;;0.40;0.40;;;;;;;12.16;78.43;100977.38;5110929;28;20161;-83
2022/09/18 04:20:58;;;;;;;0.85;0.85;;;;;;;12.12;79.05;100966.09;5110524;28;20031;-83
2022/09/18 04:23:28;;;;;;;2.38;1.50;;;;;;;12.02;79.67;100964.66;5125362;28;20438;-83
2022/09/18 04:26:08;;;;;;;0.35;0.35;;;;;;;12.05;79.54;100969.81;5141952;28;20053;-83
2022/09/18 04:28:39;;;;;;;0.20;0.20;;;;;;;12.04;79.58;100968.06;5141879;28;20076;-83
2022/09/18 04:31:09;;;;;;;0.20;0.20;;;;;;;12.12;79.28;100966.09;5127183;28;20022;-82
2022/09/18 04:33:40;;;;;;;0.22;0.22;;;;;;;12.05;80.21;100961.91;5148303;28;20041;-82
2022/09/18 04:36:12;;;;;;;0.50;0.50;;;;;;;11.88;81.79;100957.97;5157398;28;20519;-81
2022/09/18 04:38:43;;;;;;;0.32;0.32;;;;;;;11.89;80.87;100958.84;5136231;28;20038;-81
2022/09/18 04:41:13;;;;;;;0.65;0.65;;;;;;;11.97;80.16;100967.41;5108323;28;20102;-80
2022/09/18 04:43:44;;;;;;;0.40;0.40;;;;;;;11.95;81.18;100964.78;5109486;28;20038;-81
2022/09/18 04:46:14;;;;;;;0.40;0.40;;;;;;;12.02;80.95;100962.03;5119205;28;20075;-80
2022/09/18 04:48:47;;;;;;;0.30;0.30;;;;;;;12.03;80.28;100956.72;5113640;28;20046;-83
2022/09/18 04:51:19;;;;;;;0.55;0.55;;;;;;;12.00;80.59;100955.94;5139384;28;20529;-82
2022/09/18 04:53:50;;;;;;;0.32;0.32;;;;;;;11.98;80.88;100941.97;5141885;28;20034;-82
2022/09/18 04:56:23;;;;;;;1.75;1.50;;;;;;;11.88;82.00;100951.88;5120492;28;20487;-81
2022/09/18 04:58:54;;;;;;;;;;;;;;;11.91;80.64;100963.16;5123197;28;20108;-82
2022/09/18 05:01:24;;;;;;;0.77;0.77;;;;;;;11.92;81.19;100953.47;5139860;28;19918;-81
2022/09/18 05:03:56;;;;;;;0.30;0.30;;;;;;;11.85;81.38;100952.81;5156729;28;20114;-82
2022/09/18 05:06:26;;;;;;;0.57;0.57;;;;;;;11.93;81.76;100949.94;5120513;28;20035;-82
2022/09/18 05:08:57;;;;;;;1.10;1.10;;;;;;;11.97;80.63;100946.38;5114551;28;20042;-82
2022/09/18 05:11:28;;;;;;;0.60;0.60;;;;;;;11.90;81.04;100956.16;5119476;28;20062;-81
2022/09/18 05:14:01;;;;;;;0.77;0.77;;;;;;;11.93;80.79;100956.09;5124205;28;20046;-81
2022/09/18 05:16:33;;;;;;;;;;;;;;;11.95;80.51;100954.25;5137720;28;20030;-81
2022/09/18 05:19:04;;;;;;;0.20;0.20;;;;;;;11.90;81.67;100939.53;5126710;28;20295;-82
2022/09/18 05:21:34;;;;;;;0.40;0.40;;;;;;;11.99;80.38;100959.47;5109350;28;20065;-82
2022/09/18 05:24:05;;;;;;;0.20;0.20;;;;;;;11.94;80.05;100951.69;5145595;28;20506;-82
2022/09/18 05:26:35;;;;;;;0.20;0.20;;;;;;;11.90;81.35;100950.91;5117935;28;20048;-82
2022/09/18 05:29:09;;;;;;;0.40;0.40;;;;;;;11.96;80.49;100950.72;5147976;28;20590;-81
2022/09/18 05:31:41;;;;;;;0.30;0.30;;;;;;;11.82;81.01;100948.50;5135559;28;20034;-82
2022/09/18 05:37:12;;;;;;;0.35;0.35;;;;;;;11.84;81.71;100956.34;5165853;28;20087;-81
2022/09/18 05:39:42;;;;;;;0.30;0.30;;;;;;;11.87;81.35;100950.13;5151738;28;20031;-82
2022/09/18 05:42:14;;;;;;;0.22;0.22;;;;;;;11.91;81.08;100952.63;5147736;28;20069;-82
2022/09/18 05:44:44;;;;;;;0.50;0.35;;;;;;;11.79;82.01;100952.97;5126231;28;20675;-81
2022/09/18 05:47:16;;;;;;;0.20;0.20;;;;;;;11.92;80.37;100958.75;5125271;28;20415;-82
2022/09/18 05:49:47;;;;;;;0.68;0.55;;;;;;;11.73;82.22;100958.41;5132939;28;20053;-82
2022/09/18 05:52:17;;;;;;;1.58;1.20;;;;;;;11.75;82.05;100953.97;5126348;28;20185;-81
2022/09/18 05:54:48;;;;;;;14.38;0.85;;;;;;;11.86;81.27;100965.03;5113502;28;20030;-82
2022/09/18 05:57:18;;;;;;;0.35;0.35;;;;;;;11.85;81.23;100963.34;5108995;28;20066;-82
2022/09/18 05:59:49;;;;;;;0.30;0.30;;;;;;;11.96;81.11;100961.25;5154641;28;20490;-82
2022/09/18 06:02:19;;;;;;;0.30;0.30;;;;;;;11.95;81.07;100959.50;5138262;28;20038;-82
2022/09/18 06:04:51;;;;;;;0.30;0.30;;;;;;;11.91;81.11;100957.91;5143909;28;20097;-82
2022/09/18 06:07:24;;;;;;;0.73;0.73;;;;;;;12.00;80.78;100961.19;5170527;28;20045;-82
2022/09/18 06:09:54;;;;;;;3.85;1.10;;;;;;;11.93;80.96;100961.34;5157515;28;20246;-81
2022/09/18 06:12:25;;;;;;;0.30;0.30;;;;;;;11.77;82.45;100960.91;5151710;28;20097;-82
2022/09/18 06:14:59;;;;;;;10.13;0.80;;;;;;;11.84;82.39;100951.09;5159872;28;20046;-81
2022/09/18 06:17:29;;;;;;;0.30;0.30;;;;;;;11.84;81.79;100966.00;5131557;28;20046;-81
2022/09/18 06:20:02;;;;;;;0.60;0.35;;;;;;;11.82;81.68;100977.41;5145572;28;20037;-81
2022/09/18 06:22:34;;;;;;;0.25;0.25;;;;;;;11.83;81.63;100970.41;5125200;28;20042;-81
2022/09/18 06:25:20;;;;;;;0.82;0.82;;;;;;;11.81;81.90;100978.34;5115765;28;20745;-82
2022/09/18 06:27:57;;;;;;;2.20;1.33;;;;;;;11.88;81.08;100976.38;5124822;28;20125;-81
2022/09/18 06:30:30;;;;;;;0.50;0.50;;;;;;;11.85;81.50;100979.13;5117624;28;20434;-81
2022/09/18 06:33:04;;;;;;;0.35;0.35;;;;;;;11.95;80.65;100970.03;5098466;28;20074;-81
2022/09/18 06:35:37;;;;;;;0.40;0.40;;;;;;;11.93;81.25;100977.13;5117600;28;20840;-81
2022/09/18 06:38:10;;;;;;;0.90;0.85;;;;;;;11.68;82.64;100973.47;5134889;28;20088;-82
2022/09/18 06:40:53;;;;;;;7.90;1.73;;;;;;;11.62;82.81;100970.06;5111068;28;20022;-82
2022/09/18 06:43:24;;;;;;;10.95;0.77;;;;;;;11.75;82.13;100967.13;5111342;28;20047;-82
2022/09/18 06:45:59;;;;;;;1.55;1.08;;;;;;;11.69;82.33;100967.31;5115242;28;20044;-81
2022/09/18 06:48:30;;;;;;;0.40;0.40;;;;;;;11.76;82.41;100972.31;5131108;28;20045;-82
2022/09/18 06:51:04;;;;;;;0.50;0.50;;;;;;;11.72;82.42;100975.09;5132168;28;20038;-82
2022/09/18 06:53:35;;;;;;;0.65;0.65;;;;;;;11.70;82.87;100979.50;5120465;28;20039;-82
2022/09/18 06:56:06;;;;;;;1.33;0.63;;;;;;;11.69;82.60;100988.34;5120836;28;20046;-82
2022/09/18 06:58:37;;;;;;;5.93;0.82;;;;;;;11.69;83.02;100985.69;5123116;28;20105;-81
2022/09/18 07:01:07;;;;;;;1.30;0.82;;;;;;;11.67;83.64;100974.38;5146353;28;20036;-81
2022/09/18 07:03:38;;;;;;;0.30;0.30;;;;;;;11.85;82.75;100979.13;5120357;28;20065;-82
2022/09/18 07:06:11;;;;;;;0.40;0.40;;;;;;;11.77;83.37;100965.31;5127574;28;20034;-81
2022/09/18 07:08:42;;;;;;;0.25;0.25;;;;;;;11.79;83.54;100969.63;5117304;28;20038;-81
2022/09/18 07:11:16;;;;;;;0.20;0.20;;;;;;;11.91;82.28;100973.66;5117667;28;20458;-82
2022/09/18 07:13:47;;;;;;;;;;;;;;;11.73;83.85;100966.28;5146560;28;20042;-81
2022/09/18 07:16:19;;;;;;;0.20;0.20;;;;;;;11.64;84.13;100963.03;5152862;28;20319;-81
2022/09/18 07:18:49;;;;;;;0.50;0.50;;;;;;;11.77;83.12;100968.78;5135969;28;20034;-81
2022/09/18 07:21:20;;;;;;;0.28;0.28;;;;;;;11.89;82.55;100964.09;5120513;28;20521;-81
2022/09/18 07:23:50;;;;;;;0.40;0.40;;;;;;;11.81;83.21;100961.69;5136160;28;20042;-81
2022/09/18 07:26:21;;;;;;;0.30;0.30;;;;;;;11.83;83.53;100959.88;5148957;28;20041;-81
2022/09/18 07:28:55;;;;;;;2.72;1.05;;;;;;;11.83;83.66;100957.25;5126429;28;20046;-82
2022/09/18 07:31:26;;;;;;;0.70;0.70;;;;;;;11.93;82.35;100957.84;5151038;28;20148;-81
2022/09/18 07:33:57;;;;;;;0.20;0.20;;;;;;;11.92;82.60;100957.00;5118192;28;20113;-81
2022/09/18 07:36:27;;;;;;;0.25;0.25;;;;;;;11.93;82.00;100961.34;5124716;28;20038;-81
2022/09/18 07:38:58;;;;;;;0.30;0.30;;;;;;;11.98;82.54;100960.38;5121269;28;20514;-81
2022/09/18 07:41:28;;;;;;;0.65;0.65;;;;;;;12.04;81.94;100958.44;5135999;28;20485;-81
2022/09/18 07:44:01;;;;;;;0.50;0.50;;;;;;;12.05;82.28;100948.75;5131227;28;20050;-81
2022/09/18 07:46:36;;;;;;;0.95;0.75;;;;;;;12.10;81.60;100944.25;5114164;28;20453;-81
2022/09/18 07:49:09;;;;;;;0.82;0.82;;;;;;;12.00;83.11;100938.38;5117505;28;20132;-82
2022/09/18 07:51:40;;;;;;;0.25;0.25;;;;;;;12.03;83.23;100942.69;5117137;28;20517;-82
2022/09/18 07:54:11;;;;;;;0.20;0.20;;;;;;;12.11;82.54;100948.56;5127786;28;20042;-81
2022/09/18 07:56:44;;;;;;;0.20;0.20;;;;;;;12.04;83.51;100952.28;5156877;28;20611;-81
2022/09/18 07:59:15;;;;;;;0.40;0.40;;;;;;;12.21;82.30;100955.28;5130594;28;20026;-81
2022/09/18 08:01:47;;;;;;;0.28;0.28;;;;;;;12.11;82.42;100951.19;5129204;28;20038;-81
2022/09/18 08:04:18;;;;;;;0.77;0.77;;;;;;;12.25;82.01;100951.66;5125720;28;20076;-82
2022/09/18 08:06:54;;;;;;;0.77;0.77;;;;;;;12.16;81.98;100951.94;5136938;28;20026;-81
2022/09/18 08:09:24;;;;;;;0.20;0.20;;;;;;;12.33;81.33;100953.19;5122211;28;20102;-81
2022/09/18 08:11:55;;;;;;;0.68;0.50;;;;;;;12.24;81.58;100938.53;5119981;28;20469;-81
2022/09/18 08:14:26;;;;;;;0.30;0.30;;;;;;;12.24;81.72;100949.06;5126498;28;20076;-82
2022/09/18 08:16:58;;;;;;;1.23;0.88;;;;;;;12.34;81.01;100957.56;5145160;28;20101;-82
2022/09/18 08:19:29;;;;;;;0.35;0.35;;;;;;;12.39;80.94;100968.78;5115610;28;20026;-82
2022/09/18 08:22:00;;;;;;;0.20;0.20;;;;;;;12.38;80.93;100962.69;5128631;28;20143;-81
2022/09/18 08:24:32;;;;;;;0.30;0.30;;;;;;;12.41;80.77;100965.19;5146600;28;20026;-82
2022/09/18 08:27:04;;;;;;;0.20;0.20;;;;;;;12.39;81.01;100974.94;5108943;28;20399;-82
2022/09/18 08:29:35;;;;;;;0.30;0.30;;;;;;;12.40;81.57;100970.53;5131259;28;20026;-82
2022/09/18 08:32:06;;;;;;;0.45;0.45;;;;;;;12.46;82.04;100966.84;5118367;28;20043;-82
2022/09/18 08:34:37;;;;;;;0.68;0.68;;;;;;;12.49;80.86;100964.09;5127107;28;20044;-82
2022/09/18 08:37:07;;;;;;;0.30;0.30;;;;;;;12.42;81.61;100966.09;5117794;28;20514;-81
2022/09/18 08:39:38;;;;;;;0.30;0.30;;;;;;;12.44;80.81;100973.00;5108794;28;20109;-82
2022/09/18 08:42:21;;;;;;;0.20;0.20;;;;;;;12.55;81.31;100974.47;5122198;28;20045;-82
2022/09/18 08:45:03;;;;;;;0.32;0.32;;;;;;;12.68;80.34;100965.25;5139277;28;20133;-82
2022/09/18 08:47:40;;;;;;;0.20;0.20;;;;;;;12.68;80.26;100962.63;5137936;28;20097;-82
2022/09/18 08:50:19;;;;;;;0.40;0.40;;;;;;;12.72;80.37;100958.13;5119324;28;20026;-83
2022/09/18 08:53:02;;;;;;;0.30;0.30;;;;;;;12.78;79.48;100959.69;5124479;28;20493;-83
2022/09/18 08:55:38;;;;;;;0.30;0.30;;;;;;;12.72;80.07;100956.34;5125766;28;20117;-82
2022/09/18 08:58:27;;;;;;;0.35;0.35;;;;;;;12.94;79.19;100963.53;5107976;28;20380;-82
2022/09/18 09:01:08;;;;;;;0.20;0.20;;;;;;;12.96;78.89;100971.38;5143143;28;20031;-82
2022/09/18 09:04:00;;;;;;;0.40;0.40;;;;;;;12.96;79.19;100968.75;5129648;28;20058;-82
2022/09/18 09:06:48;;;;;;;0.30;0.30;;;;;;;12.88;79.27;100972.50;5144817;28;20096;-82
2022/09/18 09:09:18;;;;;;;0.20;0.20;;;;;;;12.94;78.87;100971.44;5113640;28;20096;-82
2022/09/18 09:12:27;;;;;;;0.20;0.20;;;;;;;12.75;79.27;100963.28;5146553;28;20069;-82
2022/09/18 09:15:17;;;;;;;0.20;0.20;;;;;;;12.67;79.40;100971.41;5119395;28;20464;-82
2022/09/18 09:17:50;;;;;;;0.20;0.20;;;;;;;12.72;79.26;100961.63;5137491;28;20097;-82
2022/09/18 09:20:22;;;;;;;0.32;0.32;;;;;;;12.71;79.84;100964.28;5108295;28;20042;-82
2022/09/18 09:23:04;;;;;;;0.28;0.28;;;;;;;12.77;79.86;100966.72;5137003;28;20042;-82
2022/09/18 09:25:41;;;;;;;0.20;0.20;;;;;;;12.87;79.10;100954.97;5140475;28;20038;-82
2022/09/18 09:28:19;;;;;;;0.28;0.28;;;;;;;12.70;79.99;100957.28;5106111;28;20050;-82
2022/09/18 09:30:55;;;;;;;0.52;0.52;;;;;;;12.78;79.64;100955.28;5128936;28;20029;-82
2022/09/18 09:33:33;;;;;;;0.50;0.50;;;;;;;12.82;80.05;100953.41;5139314;28;20047;-82
2022/09/18 09:36:14;;;;;;;0.20;0.20;;;;;;;12.98;79.27;100937.97;5145925;28;20026;-82
2022/09/18 09:39:16;;;;;;;1.23;0.40;;;;;;;12.97;79.62;100930.97;5110186;28;20036;-81
2022/09/18 09:42:20;;;;;;;0.60;0.60;;;;;;;12.94;79.45;100918.78;5122107;28;20506;-82
2022/09/18 09:44:57;;;;;;;0.30;0.30;;;;;;;13.00;78.02;100929.09;5115145;28;20049;-82
2022/09/18 09:47:56;;;;;;;12.95;0.65;;;;;;;13.03;78.08;100923.72;5148995;28;20050;-82
2022/09/18 09:50:52;;;;;;;0.30;0.30;;;;;;;13.02;77.67;100929.03;5113239;28;20101;-81
2022/09/18 09:53:27;;;;;;;0.40;0.40;;;;;;;13.11;76.65;100936.63;5107598;28;20121;-82
2022/09/18 09:56:21;;;;;;;0.50;0.50;;;;;;;13.05;76.28;100931.56;5127729;28;20383;-82
2022/09/18 09:59:18;;;;;;;0.20;0.20;;;;;;;13.09;74.90;100942.88;5114236;28;20052;-82
2022/09/18 10:02:21;;;;;;;0.40;0.40;;;;;;;12.96;75.37;100942.41;5127539;28;20088;-82
2022/09/18 10:05:28;;;;;;;0.20;0.20;;;;;;;12.95;74.83;100941.56;5121505;28;20046;-82
2022/09/18 10:08:11;;;;;;;0.25;0.25;;;;;;;12.94;74.24;100934.56;5115803;28;20039;-82
2022/09/18 10:10:58;;;;;;;0.30;0.30;;;;;;;13.02;74.81;100927.28;5127287;28;20030;-82
2022/09/18 10:13:46;;;;;;;0.63;0.63;;;;;;;12.91;74.79;100929.41;5129373;28;20049;-82
2022/09/18 10:16:49;;;;;;;0.20;0.20;;;;;;;12.82;75.88;100933.22;5120940;28;20037;-81
2022/09/18 10:19:26;;;;;;;0.20;0.20;;;;;;;12.97;75.35;100933.59;5129884;28;20034;-82
2022/09/18 10:21:57;;;;;;;0.40;0.40;;;;;;;12.89;75.21;100931.25;5138584;28;20038;-81
2022/09/18 10:24:40;;;;;;;0.20;0.20;;;;;;;12.90;75.73;100938.22;5138687;28;20068;-81
2022/09/18 10:27:16;;;;;;;0.63;0.63;;;;;;;12.97;75.13;100938.88;5115136;28;20046;-81
2022/09/18 10:29:47;;;;;;;0.30;0.30;;;;;;;12.80;75.18;100932.41;5121893;28;20453;-82
2022/09/18 10:32:40;;;;;;;0.20;0.20;;;;;;;12.73;75.23;100931.72;5122917;28;20046;-82
2022/09/18 10:35:33;;;;;;;0.40;0.40;;;;;;;12.96;75.15;100910.81;5117478;28;20031;-82
2022/09/18 10:38:33;;;;;;;0.20;0.20;;;;;;;12.73;74.92;100917.72;5124370;28;20079;-83
2022/09/18 10:41:10;;;;;;;0.85;0.40;;;;;;;12.81;75.34;100913.06;5133102;28;20045;-84
2022/09/18 10:44:10;;;;;;;0.55;0.55;;;;;;;12.82;75.66;100922.69;5137517;28;20061;-84
2022/09/18 10:47:11;;;;;;;0.82;0.28;;;;;;;12.87;76.11;100915.47;5127814;28;20046;-83
2022/09/18 10:50:10;;;;;;;0.20;0.20;;;;;;;12.82;76.41;100913.91;5140219;28;20039;-83
2022/09/18 10:52:48;;;;;;;1.05;0.95;;;;;;;12.71;77.00;100914.25;5083138;28;20077;-83
2022/09/18 10:55:26;;;;;;;0.30;0.30;;;;;;;12.69;77.62;100918.72;5142455;28;20026;-83
2022/09/18 10:58:15;;;;;;;0.30;0.30;;;;;;;12.74;77.06;100911.53;5119719;28;20049;-84
2022/09/18 11:00:57;;;;;;;0.35;0.35;;;;;;;12.83;76.94;100907.72;5132955;28;20037;-84
2022/09/18 11:03:49;;;;;;;0.30;0.30;;;;;;;12.86;77.45;100908.47;5107193;28;20065;-82
2022/09/18 11:06:31;;;;;;;0.25;0.25;;;;;;;12.78;77.15;100913.16;5132056;28;20030;-83
2022/09/18 11:09:10;;;;;;;0.50;0.50;;;;;;;12.82;76.92;100909.50;5128656;28;20542;-83
2022/09/18 11:11:53;;;;;;;0.30;0.30;;;;;;;12.89;77.41;100902.28;5149908;28;20022;-83
2022/09/18 11:14:31;;;;;;;0.20;0.20;;;;;;;12.79;77.59;100899.06;5093244;28;20069;-83
2022/09/18 11:17:25;;;;;;;0.47;0.47;;;;;;;12.88;76.93;100906.66;5138035;28;20038;-82
2022/09/18 11:20:01;;;;;;;1.85;0.80;;;;;;;12.99;76.42;100900.19;5131058;28;20046;-83
2022/09/18 11:22:36;;;;;;;0.55;0.55;;;;;;;12.89;77.31;100903.13;5139952;28;20042;-83
2022/09/18 11:25:25;;;;;;;0.30;0.30;;;;;;;12.83;78.40;100900.72;5144410;28;20137;-83
2022/09/18 11:27:58;;;;;;;0.20;0.20;;;;;;;12.67;79.14;100896.88;5133219;28;20522;-82
2022/09/18 11:30:30;;;;;;;;;;;;;;;12.93;78.88;100900.41;5126637;28;20119;-82
2022/09/18 11:33:26;;;;;;;1.40;1.30;;;;;;;12.84;78.91;100896.28;5134285;28;20020;-83
2022/09/18 11:36:05;;;;;;;0.32;0.32;;;;;;;13.00;78.25;100912.44;5131460;28;20387;-83
2022/09/18 11:38:59;;;;;;;0.50;0.50;;;;;;;12.94;78.57;100897.72;5140678;28;20185;-83
2022/09/18 11:41:36;;;;;;;0.32;0.32;;;;;;;12.91;78.67;100892.53;5127266;28;20433;-82
2022/09/18 11:44:09;;;;;;;0.20;0.20;;;;;;;13.04;78.02;100896.47;5145644;28;20105;-83
2022/09/18 11:46:43;;;;;;;;;;;;;;;13.09;77.62;100893.69;5147451;28;20065;-83
2022/09/18 11:49:34;;;;;;;0.40;0.40;;;;;;;13.08;77.82;100905.13;5153387;28;19913;-83
2022/09/18 11:52:28;;;;;;;0.40;0.40;;;;;;;13.08;77.64;100889.34;5128052;28;20058;-83
2022/09/18 11:55:27;;;;;;;0.20;0.20;;;;;;;13.15;76.95;100890.84;5146679;28;20034;-83
2022/09/18 11:58:01;;;;;;;0.20;0.20;;;;;;;13.31;76.17;100890.28;5154003;28;20050;-83
2022/09/18 12:00:39;;;;;;;0.38;0.38;;;;;;;13.29;75.95;100894.75;5114360;28;20672;-83
2022/09/18 12:03:23;;;;;;;0.20;0.20;;;;;;;13.29;76.22;100879.81;5113697;28;20509;-83
2022/09/18 12:06:07;;;;;;;0.82;0.43;;;;;;;13.30;75.97;100884.16;5139674;28;20034;-81
2022/09/18 12:08:53;;;;;;;4.75;1.67;;;;;;;13.53;75.02;100861.41;5140109;28;20041;-81
2022/09/18 12:11:42;;;;;;;0.75;0.75;;;;;;;13.50;75.00;100875.56;5130762;28;20029;-81
2022/09/18 12:14:20;;;;;;;0.30;0.30;;;;;;;13.60;74.29;100876.06;5116626;28;20065;-80
2022/09/18 12:20:14;;;;;;;0.38;0.38;;;;;;;13.53;73.54;100880.72;5130509;28;20495;-80